Time;durP1;ratioP1;P1;durP2;ratioP2;P2;SDS_P1;SDS_P2;PMS_P1;PMS_P2;Temp;Humidity;BMP_temperature;BMP_pressure;BME280_temperature;BME280_humidity;BME280_pressure;Samples;Min_cycle;Max_cycle;Signal;HPM_P1;HPM_P2
2022/11/22 00:00:07;;;;;;;7.63;3.63;;;8.60;99.90;;;;;;4995484;28;20415;-73
2022/11/22 00:02:33;;;;;;;4.30;3.10;;;8.60;99.90;;;;;;4994395;28;20653;-72
2022/11/22 00:04:59;;;;;;;3.63;2.80;;;8.60;99.90;;;;;;4996567;28;20934;-70
2022/11/22 00:07:25;;;;;;;5.80;3.53;;;8.70;99.90;;;;;;4995971;28;20410;-71
2022/11/22 00:09:50;;;;;;;2.80;2.60;;;8.70;99.90;;;;;;4995714;28;20171;-71
2022/11/22 00:12:16;;;;;;;4.90;3.20;;;8.70;99.90;;;;;;4994657;28;20198;-72
2022/11/22 00:14:41;;;;;;;3.17;2.50;;;8.70;99.90;;;;;;4996304;28;20762;-72
2022/11/22 00:17:07;;;;;;;2.70;2.50;;;8.70;99.90;;;;;;4995726;28;20266;-72
2022/11/22 00:19:34;;;;;;;2.90;2.50;;;8.80;99.90;;;;;;4994434;28;20702;-72
2022/11/22 00:22:00;;;;;;;3.27;2.20;;;8.90;99.90;;;;;;4995675;28;20663;-72
2022/11/22 00:24:25;;;;;;;3.47;2.50;;;8.80;99.90;;;;;;4996042;28;20414;-71
2022/11/22 00:26:51;;;;;;;4.10;3.07;;;8.70;99.90;;;;;;4995398;28;20462;-71
2022/11/22 00:29:17;;;;;;;2.87;2.50;;;8.50;99.90;;;;;;4995396;28;20170;-72
2022/11/22 00:31:42;;;;;;;5.30;3.17;;;8.40;99.90;;;;;;4994926;28;20218;-72
2022/11/22 00:34:08;;;;;;;4.60;2.70;;;8.30;99.90;;;;;;4995535;28;20267;-72
2022/11/22 00:36:33;;;;;;;6.17;3.43;;;8.40;99.90;;;;;;4995575;28;20222;-71
2022/11/22 00:38:59;;;;;;;4.37;3.43;;;8.40;99.90;;;;;;4995150;28;20205;-72
2022/11/22 00:41:24;;;;;;;6.10;2.60;;;8.30;99.90;;;;;;4995082;28;20189;-71
2022/11/22 00:43:50;;;;;;;3.67;2.73;;;8.20;99.90;;;;;;4995133;28;20662;-72
2022/11/22 00:46:15;;;;;;;8.20;3.60;;;8.30;99.90;;;;;;4995151;28;20178;-72
2022/11/22 00:48:41;;;;;;;11.43;2.77;;;8.10;99.90;;;;;;4994121;28;20239;-72
2022/11/22 00:51:06;;;;;;;4.63;2.90;;;8.00;99.90;;;;;;4995192;28;20213;-72
2022/11/22 00:53:32;;;;;;;4.73;3.17;;;7.90;99.90;;;;;;4994984;28;20207;-71
2022/11/22 00:55:58;;;;;;;5.30;3.17;;;7.80;99.90;;;;;;4994810;28;20293;-71
2022/11/22 00:58:23;;;;;;;4.40;3.17;;;7.90;99.90;;;;;;4994335;28;20230;-72
2022/11/22 01:00:49;;;;;;;5.77;3.70;;;7.90;99.90;;;;;;4994496;28;20664;-72
2022/11/22 01:03:15;;;;;;;3.03;2.43;;;8.00;99.90;;;;;;4994532;28;20170;-71
2022/11/22 01:05:40;;;;;;;4.23;2.50;;;8.10;99.90;;;;;;4994950;28;20881;-72
2022/11/22 01:08:07;;;;;;;5.77;2.60;;;8.30;99.90;;;;;;4994808;28;20182;-72
2022/11/22 01:10:36;;;;;;;3.60;2.50;;;8.10;99.90;;;;;;4994685;28;20705;-72
2022/11/22 01:13:04;;;;;;;4.13;2.50;;;8.20;99.90;;;;;;4994726;28;20488;-71
2022/11/22 01:15:29;;;;;;;3.80;2.93;;;8.30;99.90;;;;;;4994411;28;20460;-71
2022/11/22 01:17:55;;;;;;;4.13;3.10;;;8.40;99.90;;;;;;4994473;28;20414;-70
2022/11/22 01:20:21;;;;;;;3.83;2.90;;;8.30;99.90;;;;;;4994674;28;20190;-71
2022/11/22 01:22:47;;;;;;;3.73;2.50;;;8.30;99.90;;;;;;4994544;28;20713;-71
2022/11/22 01:25:13;;;;;;;3.27;2.50;;;8.30;99.90;;;;;;4994370;28;20406;-71
2022/11/22 01:27:38;;;;;;;4.43;2.40;;;8.30;99.90;;;;;;4994286;28;20700;-71
2022/11/22 01:30:04;;;;;;;3.27;2.27;;;8.40;99.90;;;;;;4994290;28;20167;-71
2022/11/22 01:32:30;;;;;;;3.57;2.43;;;8.50;99.90;;;;;;4994329;28;20171;-71
2022/11/22 01:34:56;;;;;;;2.93;2.63;;;8.60;99.90;;;;;;4994363;28;20447;-71
2022/11/22 01:37:21;;;;;;;2.37;1.80;;;8.70;99.90;;;;;;4994679;28;20175;-71
2022/11/22 01:39:47;;;;;;;4.00;2.10;;;8.70;99.90;;;;;;4994243;28;20170;-71
2022/11/22 01:42:13;;;;;;;2.20;1.93;;;8.70;99.90;;;;;;4992826;28;20193;-71
2022/11/22 01:44:40;;;;;;;4.60;2.40;;;8.60;99.90;;;;;;4994410;28;20619;-71
2022/11/22 01:47:10;;;;;;;3.60;2.50;;;8.70;99.90;;;;;;4993049;28;20262;-72
2022/11/22 01:50:00;;;;;;;2.53;2.10;;;8.80;99.90;;;;;;4994128;28;20476;-73
2022/11/22 01:52:29;;;;;;;2.67;2.47;;;8.90;99.90;;;;;;4994287;28;20406;-72
2022/11/22 01:54:59;;;;;;;2.90;2.50;;;8.80;99.90;;;;;;4993978;28;20453;-72
2022/11/22 01:57:31;;;;;;;2.90;2.27;;;8.70;99.90;;;;;;4994276;28;20407;-73
2022/11/22 02:00:15;;;;;;;3.63;2.53;;;8.60;99.90;;;;;;4995269;28;20396;-72
2022/11/22 02:02:44;;;;;;;4.13;2.97;;;8.80;99.90;;;;;;4993919;28;20413;-73
2022/11/22 02:05:15;;;;;;;3.00;2.33;;;8.60;99.90;;;;;;4993966;28;20549;-72
2022/11/22 02:07:54;;;;;;;1.87;1.70;;;8.50;99.90;;;;;;4994088;28;20398;-72
2022/11/22 02:10:22;;;;;;;3.63;2.17;;;8.60;99.90;;;;;;4982284;28;20455;-73
2022/11/22 02:12:50;;;;;;;2.93;2.67;;;8.80;99.90;;;;;;4974792;28;20413;-73
2022/11/22 02:15:16;;;;;;;2.90;2.20;;;8.80;99.90;;;;;;4974415;28;20556;-72
2022/11/22 02:17:41;;;;;;;2.27;2.03;;;8.70;99.90;;;;;;4987408;28;20985;-73
2022/11/22 02:20:08;;;;;;;3.93;2.53;;;8.70;99.90;;;;;;4993395;28;20179;-72
2022/11/22 02:22:48;;;;;;;2.83;2.53;;;8.90;99.90;;;;;;4993510;28;20189;-72
2022/11/22 02:25:31;;;;;;;2.50;2.20;;;9.00;99.90;;;;;;4993578;28;20509;-72
2022/11/22 02:27:56;;;;;;;2.67;2.40;;;8.90;99.90;;;;;;4993470;28;20439;-72
2022/11/22 02:30:22;;;;;;;3.43;2.50;;;9.10;99.90;;;;;;5019668;23;20536;-66
2022/11/22 02:32:48;;;;;;;4.80;2.30;;;9.10;99.90;;;;;;4992507;28;20292;-71
2022/11/22 02:35:23;;;;;;;2.43;1.73;;;9.10;99.90;;;;;;4994217;28;20226;-71
2022/11/22 02:37:53;;;;;;;2.30;2.00;;;9.10;99.90;;;;;;4993026;28;20155;-71
2022/11/22 02:40:20;;;;;;;3.90;2.60;;;9.00;99.90;;;;;;4993698;28;20442;-71
2022/11/22 02:42:57;;;;;;;5.33;1.90;;;9.00;99.90;;;;;;4974613;28;20411;-71
2022/11/22 02:45:23;;;;;;;2.20;2.00;;;9.10;99.90;;;;;;4974613;28;20489;-71
2022/11/22 02:47:49;;;;;;;2.93;2.03;;;9.00;99.90;;;;;;4973263;28;20520;-70
2022/11/22 02:50:14;;;;;;;3.17;2.30;;;9.10;99.90;;;;;;4974495;28;20464;-71
2022/11/22 02:52:40;;;;;;;5.00;2.27;;;9.20;99.90;;;;;;4974737;28;20245;-71
2022/11/22 02:55:06;;;;;;;1.93;1.70;;;9.10;99.90;;;;;;4974271;28;20199;-71
2022/11/22 02:57:32;;;;;;;5.20;2.30;;;9.20;99.90;;;;;;4974391;28;20173;-71
2022/11/22 02:59:57;;;;;;;3.00;2.20;;;9.20;99.90;;;;;;4974271;28;20459;-70
2022/11/22 03:02:23;;;;;;;2.43;1.90;;;9.10;99.90;;;;;;4973743;28;20205;-71
2022/11/22 03:04:49;;;;;;;4.90;2.30;;;9.10;99.90;;;;;;4974216;28;20172;-70
2022/11/22 03:07:16;;;;;;;4.93;2.60;;;9.10;99.90;;;;;;4974128;28;20176;-71
2022/11/22 03:09:41;;;;;;;4.10;2.30;;;9.00;99.90;;;;;;4973909;28;20211;-70
2022/11/22 03:12:07;;;;;;;2.47;2.27;;;8.90;99.90;;;;;;4972838;28;20487;-70
2022/11/22 03:14:33;;;;;;;2.67;1.80;;;8.90;99.90;;;;;;4974401;28;20199;-70
2022/11/22 03:16:58;;;;;;;2.50;2.30;;;8.80;99.90;;;;;;4974741;28;20180;-72
2022/11/22 03:19:24;;;;;;;3.77;2.53;;;8.80;99.90;;;;;;4973968;28;20547;-72
2022/11/22 03:21:50;;;;;;;2.60;2.40;;;8.70;99.90;;;;;;4974695;28;20230;-71
2022/11/22 03:24:16;;;;;;;2.43;2.23;;;8.60;99.90;;;;;;4978156;28;20208;-72
2022/11/22 03:26:46;;;;;;;3.10;2.40;;;8.60;99.90;;;;;;4977566;28;20414;-70
2022/11/22 03:29:12;;;;;;;2.53;2.10;;;8.60;99.90;;;;;;4977851;28;20164;-71
2022/11/22 03:31:38;;;;;;;2.03;1.77;;;8.50;99.90;;;;;;4977531;28;20446;-71
2022/11/22 03:34:03;;;;;;;3.60;2.50;;;8.50;99.90;;;;;;4977512;28;20179;-71
2022/11/22 03:36:29;;;;;;;5.20;2.97;;;8.50;99.90;;;;;;4978373;28;20208;-71
2022/11/22 03:38:54;;;;;;;3.10;2.73;;;8.60;99.90;;;;;;4977524;28;20175;-72
2022/11/22 03:41:20;;;;;;;2.57;2.37;;;8.50;99.90;;;;;;4977289;28;20219;-70
2022/11/22 03:43:46;;;;;;;6.83;3.20;;;8.50;99.90;;;;;;4977504;28;20174;-70
2022/11/22 03:46:15;;;;;;;4.47;2.13;;;8.50;99.90;;;;;;4977525;28;20667;-71
2022/11/22 03:48:41;;;;;;;3.23;2.13;;;8.50;99.90;;;;;;4977180;28;20189;-71
2022/11/22 03:51:07;;;;;;;7.20;2.30;;;8.50;99.90;;;;;;4977058;28;20435;-70
2022/11/22 03:53:32;;;;;;;8.70;2.83;;;8.50;99.90;;;;;;4977260;28;20181;-71
2022/11/22 03:55:59;;;;;;;4.03;2.63;;;8.50;99.90;;;;;;4977106;28;20648;-71
2022/11/22 03:58:25;;;;;;;2.43;2.00;;;8.50;99.90;;;;;;4976539;28;20653;-70
2022/11/22 04:00:50;;;;;;;3.40;2.30;;;8.50;99.90;;;;;;4977266;28;20473;-72
2022/11/22 04:03:16;;;;;;;4.87;2.33;;;8.60;99.90;;;;;;4976860;28;20251;-70
2022/11/22 04:05:44;;;;;;;4.10;2.20;;;8.60;99.90;;;;;;4977327;28;20227;-71
2022/11/22 04:08:09;;;;;;;2.20;1.90;;;8.60;99.90;;;;;;4977505;28;20760;-70
2022/11/22 04:10:35;;;;;;;2.87;2.03;;;8.50;99.90;;;;;;4977343;28;20411;-71
2022/11/22 04:13:01;;;;;;;5.70;2.23;;;8.50;99.90;;;;;;4977414;28;20180;-71
2022/11/22 04:15:26;;;;;;;2.10;1.73;;;8.60;99.90;;;;;;4976157;28;20680;-71
2022/11/22 04:17:52;;;;;;;2.30;2.10;;;8.40;99.90;;;;;;4976417;28;20176;-71
2022/11/22 04:23:14;;;;;;;3.13;2.47;;;8.50;99.90;;;;;;4976760;28;20163;-70
2022/11/22 04:25:43;;;;;;;5.87;3.00;;;8.60;99.90;;;;;;4976496;28;20412;-71
2022/11/22 04:28:10;;;;;;;2.60;1.77;;;8.60;99.90;;;;;;4976413;28;20412;-70
2022/11/22 04:33:21;;;;;;;3.63;2.10;;;8.60;99.90;;;;;;4976286;28;20925;-71
2022/11/22 04:35:47;;;;;;;6.10;2.30;;;8.60;99.90;;;;;;4976271;28;20531;-71
2022/11/22 04:38:14;;;;;;;2.20;1.80;;;8.50;99.90;;;;;;4976246;28;20418;-70
2022/11/22 04:40:40;;;;;;;2.83;2.30;;;8.50;99.90;;;;;;4976443;28;20434;-70
2022/11/22 04:45:53;;;;;;;4.60;2.40;;;8.30;99.90;;;;;;4976394;28;20415;-70
2022/11/22 04:48:19;;;;;;;6.17;2.00;;;8.30;99.90;;;;;;4975409;28;20527;-71
2022/11/22 04:53:30;;;;;;;3.90;2.93;;;8.10;99.90;;;;;;4976302;28;20393;-72
2022/11/22 04:55:56;;;;;;;4.97;2.40;;;8.00;99.90;;;;;;4976479;28;20446;-71
2022/11/22 04:58:22;;;;;;;2.80;2.10;;;7.80;99.90;;;;;;4975968;28;20414;-71
2022/11/22 05:00:48;;;;;;;2.93;2.50;;;7.80;99.90;;;;;;4975779;28;20459;-70
2022/11/22 05:03:14;;;;;;;4.47;2.20;;;7.80;99.90;;;;;;4975562;28;20398;-72
2022/11/22 05:05:43;;;;;;;2.37;1.93;;;7.70;99.90;;;;;;4975644;28;20496;-71
2022/11/22 05:08:09;;;;;;;4.53;2.57;;;7.60;99.90;;;;;;4976009;28;20409;-72
2022/11/22 05:13:21;;;;;;;8.37;2.57;;;7.30;99.90;;;;;;4995021;28;20431;-72
2022/11/22 05:15:50;;;;;;;3.00;1.90;;;7.30;99.90;;;;;;4976368;28;20487;-72
2022/11/22 05:18:16;;;;;;;4.20;2.77;;;7.30;99.90;;;;;;4974882;28;20465;-71
2022/11/22 05:20:42;;;;;;;4.50;2.10;;;7.30;99.90;;;;;;4975414;28;20428;-70
2022/11/22 05:25:51;;;;;;;4.80;1.93;;;7.30;99.90;;;;;;4975464;28;20164;-70
2022/11/22 05:28:17;;;;;;;4.13;1.90;;;7.30;99.90;;;;;;4975161;28;20405;-70
2022/11/22 05:30:43;;;;;;;4.73;2.20;;;7.30;99.90;;;;;;4975264;28;20268;-70
2022/11/22 05:33:08;;;;;;;7.47;2.80;;;7.40;99.90;;;;;;4973799;28;20158;-71
2022/11/22 05:35:34;;;;;;;3.73;1.70;;;7.40;99.90;;;;;;4975825;28;20694;-72
2022/11/22 05:38:00;;;;;;;9.73;2.40;;;7.50;99.90;;;;;;4975441;28;20171;-71
2022/11/22 05:40:26;;;;;;;5.03;2.17;;;7.60;99.90;;;;;;4973883;28;20170;-71
2022/11/22 05:42:52;;;;;;;7.90;3.60;;;7.60;99.90;;;;;;4973703;28;20173;-71
2022/11/22 05:45:18;;;;;;;5.13;2.80;;;7.70;99.90;;;;;;4974644;28;20416;-71
2022/11/22 05:47:44;;;;;;;5.37;3.20;;;7.80;99.90;;;;;;4973952;28;20484;-70
2022/11/22 05:50:10;;;;;;;6.47;3.67;;;7.80;99.90;;;;;;4974358;28;20421;-71
2022/11/22 05:52:35;;;;;;;5.63;3.40;;;7.90;99.90;;;;;;4974906;28;20209;-72
2022/11/22 05:55:01;;;;;;;8.27;3.77;;;8.00;99.90;;;;;;4974661;28;20450;-69
2022/11/22 05:57:27;;;;;;;6.30;3.90;;;8.10;99.90;;;;;;4975136;28;20163;-71
2022/11/22 05:59:53;;;;;;;5.40;4.67;;;8.10;99.90;;;;;;4975104;28;20166;-70
2022/11/22 06:02:19;;;;;;;6.33;3.80;;;8.10;99.90;;;;;;4974509;28;20189;-71
2022/11/22 06:04:45;;;;;;;10.47;4.40;;;8.10;99.90;;;;;;4974339;28;20465;-71
2022/11/22 06:07:10;;;;;;;6.30;4.47;;;8.00;99.90;;;;;;4974381;28;20909;-71
2022/11/22 06:09:36;;;;;;;8.13;2.87;;;8.00;99.90;;;;;;4974577;28;20249;-70
2022/11/22 06:12:02;;;;;;;5.70;2.80;;;8.00;99.90;;;;;;4974581;28;20291;-72
2022/11/22 06:14:27;;;;;;;9.50;3.47;;;8.00;99.90;;;;;;4974527;28;20463;-70
2022/11/22 06:16:53;;;;;;;7.10;5.00;;;8.00;99.90;;;;;;4974719;28;20665;-71
2022/11/22 06:19:18;;;;;;;12.20;5.93;;;8.10;99.90;;;;;;4974418;28;20181;-70
2022/11/22 06:21:44;;;;;;;8.00;5.00;;;8.10;99.90;;;;;;4974699;28;20687;-70
2022/11/22 06:24:10;;;;;;;9.03;5.30;;;8.10;99.90;;;;;;4974588;28;20176;-72
2022/11/22 06:26:35;;;;;;;9.60;4.50;;;8.10;99.90;;;;;;4974435;28;20193;-70
2022/11/22 06:29:01;;;;;;;10.63;5.23;;;8.20;99.90;;;;;;4975001;28;20206;-70
2022/11/22 06:31:28;;;;;;;7.67;4.43;;;8.10;99.90;;;;;;4973636;28;20213;-71
2022/11/22 06:33:55;;;;;;;7.60;3.97;;;8.10;99.90;;;;;;4974660;28;20484;-71
2022/11/22 06:36:27;;;;;;;5.83;3.90;;;8.10;99.90;;;;;;4974623;28;20551;-71
2022/11/22 06:38:52;;;;;;;7.73;2.93;;;8.00;99.90;;;;;;4973472;28;20442;-70
2022/11/22 06:41:20;;;;;;;5.77;3.33;;;8.10;99.90;;;;;;4974505;28;20456;-70
2022/11/22 06:43:47;;;;;;;6.83;3.43;;;8.10;99.90;;;;;;4975276;28;20194;-71
2022/11/22 06:46:14;;;;;;;10.27;6.37;;;8.00;99.90;;;;;;4974401;28;20403;-71
2022/11/22 06:48:40;;;;;;;7.80;3.87;;;7.90;99.90;;;;;;4973638;28;20982;-71
2022/11/22 06:51:12;;;;;;;6.73;2.27;;;7.90;99.90;;;;;;4973032;28;20437;-71
2022/11/22 06:53:38;;;;;;;6.17;2.80;;;8.00;99.90;;;;;;4974651;28;20456;-70
2022/11/22 06:56:10;;;;;;;11.20;4.20;;;8.00;99.90;;;;;;4974755;28;20453;-72
2022/11/22 06:58:36;;;;;;;14.40;6.20;;;8.10;99.90;;;;;;4977592;28;20391;-71
2022/11/22 07:01:04;;;;;;;11.40;6.10;;;8.10;99.90;;;;;;4978314;28;20426;-71
2022/11/22 07:03:30;;;;;;;9.80;5.73;;;8.10;99.90;;;;;;4978253;28;20397;-71
2022/11/22 07:05:56;;;;;;;11.53;4.77;;;8.10;99.90;;;;;;4978560;28;20419;-71
2022/11/22 07:08:23;;;;;;;14.43;9.77;;;8.00;99.90;;;;;;4977845;28;20410;-72
2022/11/22 07:10:49;;;;;;;18.30;11.53;;;8.00;99.90;;;;;;4977955;28;20811;-70
2022/11/22 07:13:14;;;;;;;8.87;7.00;;;8.00;99.90;;;;;;4977680;28;20916;-70
2022/11/22 07:15:41;;;;;;;8.73;3.97;;;8.00;99.90;;;;;;4977670;28;20277;-72
2022/11/22 07:18:06;;;;;;;11.00;4.80;;;7.90;99.90;;;;;;4976122;28;20184;-70
2022/11/22 07:20:32;;;;;;;5.20;3.60;;;7.90;99.90;;;;;;4977562;28;20405;-71
2022/11/22 07:22:58;;;;;;;8.20;4.20;;;8.00;99.90;;;;;;4977871;28;20163;-71
2022/11/22 07:25:23;;;;;;;6.20;3.90;;;8.10;99.90;;;;;;4977467;28;20248;-71
2022/11/22 07:27:51;;;;;;;5.57;3.60;;;8.10;99.90;;;;;;4977276;28;20175;-72
2022/11/22 07:30:17;;;;;;;7.07;3.37;;;8.10;99.90;;;;;;4975441;28;20206;-70
2022/11/22 07:32:46;;;;;;;9.07;3.87;;;8.20;99.90;;;;;;4975511;28;20477;-71
2022/11/22 07:35:12;;;;;;;9.23;4.20;;;8.30;99.90;;;;;;4975434;28;20203;-70
2022/11/22 07:37:37;;;;;;;9.17;5.03;;;8.20;99.90;;;;;;4976978;28;20988;-71
2022/11/22 07:40:03;;;;;;;7.53;4.07;;;8.30;99.90;;;;;;4977669;28;20158;-70
2022/11/22 07:42:29;;;;;;;14.30;7.30;;;8.30;99.90;;;;;;4977073;28;20187;-71
2022/11/22 07:44:55;;;;;;;18.70;16.70;;;8.40;99.90;;;;;;4975656;28;20851;-69
2022/11/22 07:47:20;;;;;;;18.77;15.57;;;8.40;99.90;;;;;;4977129;28;20186;-70
2022/11/22 07:49:46;;;;;;;41.73;25.20;;;8.50;99.90;;;;;;4976041;28;20259;-72
2022/11/22 07:52:11;;;;;;;25.80;18.43;;;8.60;99.90;;;;;;4977151;28;20201;-70
2022/11/22 07:54:38;;;;;;;25.23;16.73;;;8.60;99.90;;;;;;4977105;28;20203;-70
2022/11/22 07:57:03;;;;;;;19.47;12.23;;;8.70;99.90;;;;;;4977030;28;20580;-70
2022/11/22 07:59:31;;;;;;;18.23;11.40;;;8.80;99.90;;;;;;4975166;28;20405;-70
2022/11/22 08:01:57;;;;;;;12.23;8.07;;;8.90;99.90;;;;;;4977286;28;20192;-70
2022/11/22 08:04:22;;;;;;;8.57;3.93;;;8.90;99.90;;;;;;4986208;28;20417;-70
2022/11/22 08:06:48;;;;;;;7.40;3.90;;;8.90;99.90;;;;;;4996273;28;20169;-70
2022/11/22 08:09:14;;;;;;;7.23;3.20;;;8.80;99.90;;;;;;4996397;28;20168;-71
2022/11/22 08:11:39;;;;;;;7.37;3.27;;;8.80;99.90;;;;;;4995955;28;20283;-71
2022/11/22 08:14:05;;;;;;;7.27;3.43;;;8.80;99.90;;;;;;4996178;28;20251;-71
2022/11/22 08:16:30;;;;;;;3.47;2.20;;;8.80;99.90;;;;;;4996184;28;20201;-71
2022/11/22 08:18:57;;;;;;;7.00;2.30;;;8.70;99.90;;;;;;4986077;28;20182;-70
2022/11/22 08:21:22;;;;;;;7.17;2.20;;;8.80;99.90;;;;;;4976648;28;20214;-71
2022/11/22 08:23:48;;;;;;;11.33;2.90;;;8.90;99.90;;;;;;4976833;28;20410;-71
2022/11/22 08:26:16;;;;;;;5.30;1.93;;;8.80;99.90;;;;;;4976683;28;20175;-71
2022/11/22 08:28:42;;;;;;;8.33;2.53;;;8.90;99.90;;;;;;4976418;28;20259;-71
2022/11/22 08:31:14;;;;;;;6.00;2.80;;;8.80;99.90;;;;;;5008173;22;20914;-71
2022/11/22 08:33:41;;;;;;;3.60;2.60;;;8.90;99.90;;;;;;5014626;28;20405;-72
2022/11/22 08:36:07;;;;;;;5.43;2.40;;;8.90;99.90;;;;;;5014861;28;20449;-72
2022/11/22 08:38:33;;;;;;;2.63;2.17;;;9.00;99.90;;;;;;5015461;28;20921;-72
2022/11/22 08:40:58;;;;;;;3.50;2.57;;;9.20;99.90;;;;;;5015066;28;20424;-73
2022/11/22 08:43:24;;;;;;;6.67;3.40;;;9.30;99.90;;;;;;5014987;28;20175;-72
2022/11/22 08:45:55;;;;;;;8.37;2.33;;;9.30;99.90;;;;;;5015109;28;20174;-72
2022/11/22 08:48:21;;;;;;;3.47;2.40;;;9.40;99.90;;;;;;5014650;28;20788;-72
2022/11/22 08:50:54;;;;;;;6.37;2.50;;;9.40;99.90;;;;;;5014832;28;20417;-72
2022/11/22 08:53:21;;;;;;;5.53;2.10;;;9.60;99.90;;;;;;5014965;28;20160;-72
2022/11/22 08:55:46;;;;;;;5.43;2.00;;;9.50;99.90;;;;;;5014795;28;20505;-72
2022/11/22 08:58:12;;;;;;;5.90;2.40;;;9.70;99.90;;;;;;5014596;28;20407;-72
2022/11/22 09:00:38;;;;;;;6.10;2.43;;;9.70;99.90;;;;;;5014506;28;20262;-72
2022/11/22 09:03:03;;;;;;;4.93;2.10;;;9.80;99.90;;;;;;5014439;28;20194;-72
2022/11/22 09:05:30;;;;;;;8.83;2.60;;;9.80;99.90;;;;;;5014018;28;20185;-72
2022/11/22 09:07:57;;;;;;;6.70;2.40;;;9.70;99.90;;;;;;5014320;28;20170;-73
2022/11/22 09:10:22;;;;;;;5.70;2.37;;;9.80;99.90;;;;;;5014253;28;20414;-72
2022/11/22 09:12:48;;;;;;;6.73;2.67;;;10.00;99.90;;;;;;5014117;28;20423;-72
2022/11/22 09:15:14;;;;;;;6.97;2.73;;;10.20;99.90;;;;;;5014436;28;20197;-72
2022/11/22 09:17:41;;;;;;;5.00;2.63;;;10.30;99.90;;;;;;5012774;28;20218;-72
2022/11/22 09:20:07;;;;;;;5.70;2.20;;;10.20;99.90;;;;;;5013446;28;20416;-72
2022/11/22 09:22:33;;;;;;;6.33;2.80;;;10.40;99.90;;;;;;5014306;28;20438;-71
2022/11/22 09:24:58;;;;;;;3.90;2.40;;;10.50;99.90;;;;;;5014371;28;20410;-72
2022/11/22 09:27:24;;;;;;;5.63;2.43;;;10.40;99.90;;;;;;5014343;28;20439;-72
2022/11/22 09:29:49;;;;;;;5.27;2.30;;;10.20;99.90;;;;;;5013873;28;20184;-72
2022/11/22 09:32:15;;;;;;;3.70;1.97;;;10.20;99.90;;;;;;5013537;28;20632;-72
2022/11/22 09:34:41;;;;;;;4.50;2.27;;;10.10;99.90;;;;;;5013563;28;20570;-72
2022/11/22 09:37:06;;;;;;;7.03;2.70;;;10.20;99.90;;;;;;5014012;28;20607;-72
2022/11/22 09:39:32;;;;;;;6.30;2.50;;;10.10;99.90;;;;;;5013692;28;20202;-71
2022/11/22 09:42:00;;;;;;;5.83;2.67;;;10.00;99.90;;;;;;5013512;28;20185;-72
2022/11/22 09:45:11;;;;;;;5.97;2.50;;;10.10;99.90;;;;;;5013428;28;20168;-72
2022/11/22 09:47:42;;;;;;;6.93;2.50;;;10.00;99.90;;;;;;5013507;28;20390;-72
2022/11/22 09:50:38;;;;;;;6.87;2.70;;;9.80;99.90;;;;;;5012424;28;20455;-71
2022/11/22 09:53:08;;;;;;;5.33;2.77;;;9.80;99.90;;;;;;5014131;28;20426;-71
2022/11/22 09:55:40;;;;;;;4.83;2.97;;;9.70;99.90;;;;;;5013412;28;20454;-71
2022/11/22 09:58:19;;;;;;;5.60;2.13;;;9.80;99.90;;;;;;5012807;28;20403;-72
2022/11/22 10:00:46;;;;;;;8.23;2.80;;;9.70;99.90;;;;;;5013694;28;20392;-72
2022/11/22 10:03:31;;;;;;;5.80;2.67;;;9.80;99.90;;;;;;5013415;28;20403;-71
2022/11/22 10:06:02;;;;;;;3.83;2.70;;;9.90;99.90;;;;;;5009408;28;20422;-72
2022/11/22 10:08:42;;;;;;;5.33;2.27;;;10.00;99.90;;;;;;5013121;28;20414;-72
2022/11/22 10:12:06;;;;;;;4.10;1.87;;;10.00;99.90;;;;;;5013675;28;20526;-71
2022/11/22 10:14:44;;;;;;;4.90;2.20;;;9.80;99.90;;;;;;4959759;28;20917;-72
2022/11/22 10:17:37;;;;;;;3.20;2.10;;;9.80;99.90;;;;;;5013592;28;20509;-73
2022/11/22 10:20:17;;;;;;;6.60;2.00;;;9.90;99.90;;;;;;5012988;28;20910;-72
2022/11/22 10:22:42;;;;;;;4.17;1.90;;;9.80;99.90;;;;;;5013157;28;20519;-71
2022/11/22 10:25:20;;;;;;;6.10;2.50;;;9.90;99.90;;;;;;5011898;28;20533;-72
2022/11/22 10:28:00;;;;;;;4.23;2.33;;;10.00;99.90;;;;;;5013370;28;20182;-71
2022/11/22 10:30:33;;;;;;;3.90;2.10;;;10.00;99.90;;;;;;5013578;28;20864;-72
2022/11/22 10:33:11;;;;;;;5.73;2.10;;;9.90;99.90;;;;;;5017031;28;20457;-71
2022/11/22 10:35:43;;;;;;;5.20;2.17;;;10.10;99.90;;;;;;5013945;28;20442;-72
2022/11/22 10:38:18;;;;;;;4.67;2.30;;;10.10;99.90;;;;;;5015294;28;20828;-71
2022/11/22 10:41:14;;;;;;;5.43;2.10;;;10.20;99.90;;;;;;5016890;28;20486;-72
2022/11/22 10:44:24;;;;;;;7.10;2.70;;;10.30;99.90;;;;;;5015881;28;20439;-71
2022/11/22 10:47:08;;;;;;;6.30;2.97;;;10.30;99.90;;;;;;5004874;28;20499;-73
2022/11/22 10:50:12;;;;;;;4.53;2.33;;;10.40;99.90;;;;;;5015969;28;20422;-72
2022/11/22 10:53:02;;;;;;;4.60;2.40;;;10.30;99.90;;;;;;5016359;28;20435;-73
2022/11/22 10:56:00;;;;;;;6.93;2.60;;;10.30;99.90;;;;;;5011104;28;20548;-72
2022/11/22 10:58:37;;;;;;;3.43;2.17;;;10.20;99.90;;;;;;4996049;28;20476;-72
2022/11/22 11:01:09;;;;;;;4.43;2.17;;;10.50;99.90;;;;;;5017025;28;20964;-71
2022/11/22 11:03:40;;;;;;;5.10;2.60;;;10.50;99.90;;;;;;5016814;28;20852;-71
2022/11/22 11:06:21;;;;;;;4.70;2.50;;;10.10;99.90;;;;;;5016808;28;20395;-72
2022/11/22 11:08:55;;;;;;;3.90;1.73;;;9.80;99.90;;;;;;5017007;28;20465;-72
2022/11/22 11:11:23;;;;;;;5.07;2.10;;;9.90;99.90;;;;;;5016785;28;20925;-71
2022/11/22 11:13:53;;;;;;;6.00;2.20;;;10.10;99.90;;;;;;5016459;28;20418;-71
2022/11/22 11:16:26;;;;;;;5.13;1.90;;;10.10;99.90;;;;;;5016577;28;20455;-72
2022/11/22 11:19:10;;;;;;;7.87;2.40;;;10.00;99.90;;;;;;5016446;28;20498;-72
2022/11/22 11:21:36;;;;;;;5.97;2.00;;;10.00;99.90;;;;;;5016238;28;20426;-72
2022/11/22 11:24:02;;;;;;;5.40;1.90;;;10.30;99.90;;;;;;5016185;28;20410;-72
2022/11/22 11:26:29;;;;;;;6.07;2.10;;;10.20;99.90;;;;;;5016262;28;20469;-71
2022/11/22 11:29:16;;;;;;;2.23;1.37;;;10.30;99.90;;;;;;5016268;28;20821;-72
2022/11/22 11:31:46;;;;;;;2.67;1.63;;;10.40;99.90;;;;;;5015927;28;20977;-72
2022/11/22 11:34:24;;;;;;;7.20;2.17;;;10.50;99.90;;;;;;5015829;28;20497;-73
2022/11/22 11:36:54;;;;;;;4.30;1.80;;;10.40;99.90;;;;;;5016056;28;20417;-73
2022/11/22 11:39:27;;;;;;;5.63;2.13;;;10.40;99.90;;;;;;5015885;28;20407;-74
2022/11/22 11:41:53;;;;;;;6.13;1.80;;;10.50;99.90;;;;;;5016063;28;20430;-73
2022/11/22 11:44:28;;;;;;;6.70;1.77;;;10.50;99.90;;;;;;5015123;28;20556;-73
2022/11/22 11:46:53;;;;;;;7.80;2.57;;;10.70;99.90;;;;;;5016110;28;20201;-75
2022/11/22 11:49:33;;;;;;;4.53;1.97;;;10.40;99.90;;;;;;5014891;28;20509;-73
2022/11/22 11:52:03;;;;;;;4.63;2.00;;;10.30;99.90;;;;;;5015866;28;20196;-72
2022/11/22 11:54:32;;;;;;;3.53;1.70;;;10.30;99.90;;;;;;5015809;28;20406;-73
2022/11/22 11:57:00;;;;;;;4.60;2.10;;;10.50;99.90;;;;;;5015720;28;20410;-73
2022/11/22 11:59:37;;;;;;;3.60;1.70;;;10.70;99.90;;;;;;5015623;28;20407;-73
2022/11/22 12:02:20;;;;;;;5.90;2.17;;;10.90;99.90;;;;;;5016053;28;20422;-73
2022/11/22 12:05:03;;;;;;;11.20;1.80;;;10.90;99.90;;;;;;5013948;28;20561;-74
2022/11/22 12:07:34;;;;;;;5.87;2.03;;;11.00;99.90;;;;;;5016648;28;20467;-73
2022/11/22 12:10:02;;;;;;;6.50;1.87;;;11.00;99.90;;;;;;5015349;28;20411;-74
2022/11/22 12:12:41;;;;;;;4.73;1.50;;;11.10;99.90;;;;;;5014115;28;20451;-73
2022/11/22 12:15:28;;;;;;;6.60;1.97;;;11.40;99.90;;;;;;5015087;28;20453;-73
2022/11/22 12:18:06;;;;;;;4.77;1.47;;;11.20;99.90;;;;;;5017984;28;20411;-73
2022/11/22 12:20:59;;;;;;;6.40;2.00;;;11.50;99.90;;;;;;5015728;28;20414;-73
2022/11/22 12:23:46;;;;;;;5.47;2.17;;;11.60;99.90;;;;;;5015555;28;20395;-73
2022/11/22 12:26:13;;;;;;;4.33;1.53;;;11.60;99.90;;;;;;5015584;28;20419;-73
2022/11/22 12:28:38;;;;;;;3.37;1.57;;;11.50;99.90;;;;;;5015428;28;20406;-73
2022/11/22 12:31:13;;;;;;;4.90;1.93;;;11.50;99.90;;;;;;5014546;28;20556;-73
2022/11/22 12:33:46;;;;;;;5.13;2.40;;;11.70;99.90;;;;;;5013390;28;20175;-73
2022/11/22 12:36:20;;;;;;;5.97;1.83;;;11.70;99.90;;;;;;5015244;28;20446;-74
2022/11/22 12:38:48;;;;;;;4.67;1.70;;;11.50;99.90;;;;;;5015707;28;20754;-73
2022/11/22 12:41:18;;;;;;;3.43;1.27;;;11.40;99.90;;;;;;5015042;28;20930;-73
2022/11/22 12:43:56;;;;;;;5.73;1.63;;;11.30;99.90;;;;;;5013917;28;20890;-73
2022/11/22 12:46:36;;;;;;;6.53;1.80;;;11.50;99.90;;;;;;5015344;28;20418;-73
2022/11/22 12:49:12;;;;;;;5.60;1.70;;;11.60;99.90;;;;;;5014105;28;20464;-74
2022/11/22 12:52:11;;;;;;;8.97;2.73;;;11.60;99.90;;;;;;5013524;28;20484;-73
2022/11/22 12:54:46;;;;;;;5.43;2.03;;;11.40;99.90;;;;;;5010495;28;20423;-73
2022/11/22 12:57:30;;;;;;;6.77;1.67;;;11.40;99.90;;;;;;5013536;28;20403;-73
2022/11/22 13:00:17;;;;;;;5.10;1.87;;;11.50;99.90;;;;;;5014853;28;20414;-72
2022/11/22 13:03:04;;;;;;;5.20;1.60;;;11.40;99.90;;;;;;5012660;28;20438;-73
2022/11/22 13:05:36;;;;;;;6.07;1.63;;;11.30;99.90;;;;;;5013345;28;20411;-73
2022/11/22 13:08:15;;;;;;;8.00;2.03;;;11.10;99.90;;;;;;5014269;28;20387;-73
2022/11/22 13:10:47;;;;;;;5.47;1.83;;;10.90;99.90;;;;;;5014656;28;20471;-73
2022/11/22 13:13:23;;;;;;;6.50;1.90;;;10.80;99.90;;;;;;5014421;28;20481;-73
2022/11/22 13:15:52;;;;;;;13.03;2.30;;;10.90;99.90;;;;;;5014318;28;21030;-73
2022/11/22 13:18:19;;;;;;;7.50;2.93;;;11.10;99.90;;;;;;5014466;28;20437;-73
2022/11/22 13:20:58;;;;;;;6.63;1.97;;;10.90;99.90;;;;;;5013959;28;20439;-73